createdAt,value
2023-01-17T00:03:22.115Z,961.24
2023-01-17T00:08:26.300Z,961.24
2023-01-17T00:13:30.464Z,961.23
2023-01-17T00:18:34.615Z,961.34
2023-01-17T00:23:38.769Z,961.36
2023-01-17T00:28:42.941Z,961.44
2023-01-17T00:33:47.104Z,961.52
2023-01-17T00:38:51.247Z,961.56
2023-01-17T00:43:55.393Z,961.74
2023-01-17T00:48:59.581Z,961.80
2023-01-17T00:54:03.767Z,961.99
2023-01-17T00:59:07.945Z,962.06
2023-01-17T01:04:12.093Z,962.09
2023-01-17T01:09:16.264Z,962.08
2023-01-17T01:14:20.410Z,962.16
2023-01-17T01:19:24.602Z,962.19
2023-01-17T01:24:28.732Z,962.25
2023-01-17T01:29:32.875Z,962.35
2023-01-17T01:34:37.090Z,962.45
2023-01-17T01:39:39.331Z,962.73
2023-01-17T01:44:43.528Z,962.85
2023-01-17T01:49:45.801Z,962.97
2023-01-17T01:54:49.936Z,963.16
2023-01-17T01:59:54.117Z,963.21
2023-01-17T02:04:58.312Z,963.28
2023-01-17T02:10:02.454Z,963.39
2023-01-17T02:15:06.623Z,963.42
2023-01-17T02:20:10.763Z,963.53
2023-01-17T02:25:14.948Z,963.65
2023-01-17T02:30:19.112Z,963.57
2023-01-17T02:35:23.245Z,963.54
2023-01-17T02:40:27.443Z,963.54
2023-01-17T02:45:31.629Z,963.62
2023-01-17T02:50:35.763Z,963.75
2023-01-17T02:55:39.921Z,964.05
2023-01-17T03:00:44.273Z,964.63
2023-01-17T03:05:48.263Z,964.91
2023-01-17T03:10:52.389Z,965.04
2023-01-17T03:15:56.598Z,965.27
2023-01-17T03:21:00.770Z,965.37
2023-01-17T03:26:04.923Z,965.43
2023-01-17T03:31:09.070Z,965.51
2023-01-17T03:36:11.327Z,965.42
2023-01-17T03:41:15.515Z,965.38
2023-01-17T03:46:19.687Z,965.47
2023-01-17T03:51:21.941Z,965.62
2023-01-17T03:56:26.136Z,965.57
2023-01-17T04:01:30.344Z,965.60
2023-01-17T04:06:34.415Z,965.75
2023-01-17T04:11:38.633Z,965.72
2023-01-17T04:16:42.825Z,965.71
2023-01-17T04:21:46.953Z,965.60
2023-01-17T04:26:51.107Z,965.59
2023-01-17T04:31:55.296Z,965.55
2023-01-17T04:36:59.431Z,965.42
2023-01-17T04:42:03.653Z,965.46
2023-01-17T04:47:07.790Z,965.48
2023-01-17T04:52:11.937Z,965.50
2023-01-17T04:57:16.088Z,965.61
2023-01-17T05:02:20.356Z,965.54
2023-01-17T05:07:24.408Z,965.52
2023-01-17T05:12:28.578Z,965.62
2023-01-17T05:17:32.771Z,965.63
2023-01-17T05:22:36.932Z,965.73
2023-01-17T05:27:41.118Z,965.81
2023-01-17T05:32:45.259Z,965.86
2023-01-17T05:37:47.520Z,965.94
2023-01-17T05:42:49.822Z,966.05
2023-01-17T05:47:53.985Z,966.10
2023-01-17T05:52:56.257Z,966.16
2023-01-17T05:58:00.409Z,966.17
2023-01-17T06:03:04.581Z,966.28
2023-01-17T06:08:08.761Z,966.34
2023-01-17T06:13:12.898Z,966.37
2023-01-17T06:18:17.074Z,966.39
2023-01-17T06:23:21.269Z,966.38
2023-01-17T06:28:25.422Z,966.49
2023-01-17T06:33:29.562Z,966.45
2023-01-17T06:38:33.723Z,966.54
2023-01-17T06:43:36.021Z,966.57
2023-01-17T06:48:40.162Z,966.65
2023-01-17T06:53:44.363Z,966.77
2023-01-17T06:58:48.514Z,966.76
2023-01-17T07:03:52.740Z,966.81
2023-01-17T07:08:56.814Z,966.84
2023-01-17T07:14:01.022Z,966.79
2023-01-17T07:19:05.144Z,966.82
2023-01-17T07:24:09.304Z,966.85
2023-01-17T07:29:13.479Z,966.94
2023-01-17T07:34:17.653Z,966.92
2023-01-17T07:39:19.937Z,966.92
2023-01-17T07:44:24.074Z,966.96
2023-01-17T07:49:26.348Z,967.07
2023-01-17T07:54:30.579Z,966.93
2023-01-17T07:59:34.688Z,966.91
2023-01-17T08:04:38.865Z,967.01
2023-01-17T08:09:43.080Z,967.06
2023-01-17T08:14:47.197Z,967.06
2023-01-17T08:19:51.363Z,966.99
2023-01-17T08:24:55.516Z,967.00
2023-01-17T08:29:59.728Z,967.00
2023-01-17T08:35:03.871Z,966.99
2023-01-17T08:40:08.019Z,966.98
2023-01-17T08:45:12.215Z,967.03
2023-01-17T08:50:16.354Z,967.10
2023-01-17T08:55:20.511Z,967.22
2023-01-17T09:00:24.699Z,967.21
2023-01-17T09:05:28.873Z,967.28
2023-01-17T09:10:33.009Z,967.20
2023-01-17T09:15:37.213Z,967.22
2023-01-17T09:20:41.321Z,967.36
2023-01-17T09:25:47.372Z,967.52
2023-01-17T09:30:49.754Z,967.64
2023-01-17T09:35:51.965Z,967.77
2023-01-17T09:40:56.124Z,967.85
2023-01-17T09:45:58.456Z,967.95
2023-01-17T09:51:02.564Z,967.92
2023-01-17T09:56:06.747Z,967.99
2023-01-17T10:01:11.006Z,968.05
2023-01-17T10:06:15.070Z,968.17
2023-01-17T10:11:19.234Z,968.18
2023-01-17T10:16:23.416Z,968.37
2023-01-17T10:21:27.613Z,968.60
2023-01-17T10:26:31.732Z,968.74
2023-01-17T10:31:35.874Z,968.92
2023-01-17T10:36:40.069Z,969.12
2023-01-17T10:41:44.234Z,969.29
2023-01-17T10:46:48.360Z,969.40
2023-01-17T10:51:52.537Z,969.54
2023-01-17T10:56:56.683Z,969.70
2023-01-17T11:02:00.928Z,969.71
2023-01-17T11:07:05.009Z,969.91
2023-01-17T11:12:09.202Z,969.90
2023-01-17T11:17:13.340Z,969.89
2023-01-17T11:22:17.537Z,970.04
2023-01-17T11:27:21.707Z,970.31
2023-01-17T11:32:23.921Z,970.51
2023-01-17T11:37:28.158Z,970.74
2023-01-17T11:42:32.307Z,970.87
2023-01-17T11:47:36.444Z,971.00
2023-01-17T11:52:40.622Z,970.96
2023-01-17T11:57:44.781Z,971.08
2023-01-17T12:02:48.932Z,971.22
2023-01-17T12:07:53.104Z,971.03
2023-01-17T12:12:57.311Z,970.87
2023-01-17T12:18:01.479Z,970.81
2023-01-17T12:23:05.609Z,971.30
2023-01-17T12:28:09.788Z,971.70
2023-01-17T12:33:13.907Z,972.12
2023-01-17T12:38:31.851Z,972.23
2023-01-17T12:43:22.250Z,972.36
2023-01-17T12:48:26.440Z,972.48
2023-01-17T12:53:30.572Z,972.56
2023-01-17T12:58:34.799Z,972.87
2023-01-17T13:03:38.906Z,972.88
2023-01-17T13:08:43.061Z,972.58
2023-01-17T13:13:47.256Z,972.92
2023-01-17T13:18:49.523Z,973.02
2023-01-17T13:23:53.673Z,973.00
2023-01-17T13:28:55.948Z,972.99
2023-01-17T13:34:00.156Z,973.00
2023-01-17T13:39:02.433Z,972.80
2023-01-17T13:44:06.561Z,972.92
2023-01-17T13:49:10.725Z,973.14
2023-01-17T13:54:14.881Z,973.15
2023-01-17T13:59:19.069Z,973.08
2023-01-17T14:04:23.201Z,972.89
2023-01-17T14:09:27.368Z,972.61
2023-01-17T14:14:31.541Z,972.39
2023-01-17T14:19:35.714Z,972.14
2023-01-17T14:24:39.860Z,972.08
2023-01-17T14:29:44.029Z,972.24
2023-01-17T14:34:48.200Z,972.47
2023-01-17T14:39:52.380Z,972.37
2023-01-17T14:44:56.541Z,972.37
2023-01-17T14:50:00.721Z,972.62
2023-01-17T14:55:04.862Z,972.70
2023-01-17T15:00:09.019Z,972.68
2023-01-17T15:05:13.235Z,972.60
2023-01-17T15:10:17.343Z,972.52
2023-01-17T15:15:21.540Z,972.15
2023-01-17T15:20:25.667Z,971.96
2023-01-17T15:25:27.980Z,971.57
2023-01-17T15:30:32.222Z,971.42
2023-01-17T15:35:36.270Z,971.38
2023-01-17T15:40:40.435Z,971.17
2023-01-17T15:45:44.668Z,971.04
2023-01-17T15:50:48.788Z,970.79
2023-01-17T15:55:52.986Z,970.50
2023-01-17T16:00:57.333Z,970.37
2023-01-17T16:06:01.289Z,970.32
2023-01-17T16:11:05.477Z,970.14
2023-01-17T16:16:10.089Z,970.03
2023-01-17T16:21:13.782Z,969.85
2023-01-17T16:26:17.911Z,969.81
2023-01-17T16:31:22.198Z,969.77
2023-01-17T16:36:26.287Z,969.77
2023-01-17T16:41:30.460Z,969.66
2023-01-17T16:46:34.644Z,969.74
2023-01-17T16:51:38.764Z,969.82
2023-01-17T16:56:42.917Z,969.86
2023-01-17T17:01:47.195Z,969.98
2023-01-17T17:06:51.260Z,969.93
2023-01-17T17:11:53.523Z,969.87
2023-01-17T17:16:57.698Z,969.82
2023-01-17T17:22:00.003Z,969.74
2023-01-17T17:27:04.172Z,969.82
2023-01-17T17:32:06.441Z,969.91
2023-01-17T17:42:14.751Z,969.73
2023-01-17T17:47:18.962Z,969.64
2023-01-17T17:52:23.154Z,969.62
2023-01-17T17:57:27.253Z,969.63
2023-01-17T18:02:31.433Z,969.67
2023-01-17T18:07:35.633Z,969.69
2023-01-17T18:12:39.754Z,969.72
2023-01-17T18:17:43.943Z,969.75
2023-01-17T18:22:48.100Z,969.73
2023-01-17T18:27:52.723Z,969.82
2023-01-17T18:32:56.418Z,969.81
2023-01-17T18:38:00.595Z,969.88
2023-01-17T18:43:04.796Z,969.97
2023-01-17T18:48:08.907Z,969.94
2023-01-17T18:53:13.106Z,969.96
2023-01-17T18:58:17.241Z,969.95
2023-01-17T19:03:21.423Z,969.92
2023-01-17T19:08:25.596Z,970.01
2023-01-17T19:13:29.764Z,970.10
2023-01-17T19:18:33.961Z,970.13
2023-01-17T19:23:36.190Z,970.12
2023-01-17T19:28:40.426Z,970.17
2023-01-17T19:33:44.557Z,970.19
2023-01-17T19:38:58.763Z,970.15
2023-01-17T19:43:50.988Z,970.26
2023-01-17T19:48:55.182Z,970.31
2023-01-17T19:53:59.371Z,970.36
2023-01-17T19:59:03.499Z,970.33
2023-01-17T20:04:07.664Z,970.39
2023-01-17T20:09:11.802Z,970.36
2023-01-17T20:14:16.000Z,970.49
2023-01-17T20:19:20.180Z,970.59
2023-01-17T20:24:24.340Z,970.67
2023-01-17T20:29:28.459Z,970.64
2023-01-17T20:34:32.649Z,970.74
2023-01-17T20:39:35.069Z,970.77
2023-01-17T20:44:39.301Z,970.79
2023-01-17T20:49:43.427Z,970.77
2023-01-17T20:54:47.591Z,970.78
2023-01-17T20:59:51.723Z,970.72
2023-01-17T21:04:55.928Z,970.67
2023-01-17T21:10:00.100Z,970.75
2023-01-17T21:15:04.269Z,970.76
2023-01-17T21:20:08.448Z,970.88
2023-01-17T21:25:10.688Z,970.89
2023-01-17T21:30:14.850Z,970.89
2023-01-17T21:35:17.152Z,970.93
2023-01-17T21:40:21.327Z,970.80
2023-01-17T21:45:25.509Z,970.81
2023-01-17T21:50:33.491Z,970.88
2023-01-17T21:55:33.805Z,970.89
2023-01-17T22:00:37.987Z,970.93
2023-01-17T22:05:42.131Z,970.91
2023-01-17T22:10:46.335Z,970.93
2023-01-17T22:15:50.553Z,970.88
2023-01-17T22:20:54.661Z,970.95
2023-01-17T22:25:58.786Z,971.04
2023-01-17T22:31:02.986Z,971.05
2023-01-17T22:36:07.191Z,971.02
2023-01-17T22:41:11.295Z,970.99
2023-01-17T22:46:15.515Z,970.97
2023-01-17T22:51:19.688Z,971.01
2023-01-17T22:56:23.958Z,971.10
2023-01-17T23:01:27.959Z,971.06
2023-01-17T23:06:32.178Z,971.08
2023-01-17T23:11:36.314Z,970.96
2023-01-17T23:16:40.496Z,971.00
2023-01-17T23:21:42.760Z,970.99
2023-01-17T23:26:46.937Z,970.95
2023-01-17T23:31:49.205Z,970.99
2023-01-17T23:36:53.347Z,970.90
2023-01-17T23:41:55.656Z,970.93
2023-01-17T23:46:59.849Z,970.85
2023-01-17T23:52:03.973Z,970.91
2023-01-17T23:57:08.196Z,970.91
